sensor_id;sensor_type;location;lat;lon;timestamp;temperature;humidity
76785;SHT30;66893;44.316;0.092;2024-03-25T13:47:14;22.40;41.68
76785;SHT30;66893;44.316;0.092;2024-03-25T13:49:40;22.32;41.73
76785;SHT30;66893;44.316;0.092;2024-03-25T13:52:05;22.28;41.76
76785;SHT30;66893;44.316;0.092;2024-03-25T13:54:30;22.22;41.79
76785;SHT30;66893;44.316;0.092;2024-03-25T13:56:59;22.15;41.78
76785;SHT30;66893;44.316;0.092;2024-03-25T13:59:24;22.12;41.85
76785;SHT30;66893;44.316;0.092;2024-03-25T14:01:50;22.06;41.93
76785;SHT30;66893;44.316;0.092;2024-03-25T14:04:20;21.98;42.00
76785;SHT30;66893;44.316;0.092;2024-03-25T14:06:46;21.92;42.05
76785;SHT30;66893;44.316;0.092;2024-03-25T14:09:27;21.84;42.06
76785;SHT30;66893;44.316;0.092;2024-03-25T14:11:52;21.82;42.11
76785;SHT30;66893;44.316;0.092;2024-03-25T14:14:18;21.78;42.13
76785;SHT30;66893;44.316;0.092;2024-03-25T14:16:44;21.68;42.04
76785;SHT30;66893;44.316;0.092;2024-03-25T14:19:09;21.65;42.09
76785;SHT30;66893;44.316;0.092;2024-03-25T14:21:35;21.58;42.14
76785;SHT30;66893;44.316;0.092;2024-03-25T14:24:00;21.57;42.15
76785;SHT30;66893;44.316;0.092;2024-03-25T14:26:26;21.51;42.21
76785;SHT30;66893;44.316;0.092;2024-03-25T14:28:52;21.49;42.01
76785;SHT30;66893;44.316;0.092;2024-03-25T14:31:17;21.44;41.98
76785;SHT30;66893;44.316;0.092;2024-03-25T14:33:43;21.39;41.90
76785;SHT30;66893;44.316;0.092;2024-03-25T14:36:08;21.34;41.77
76785;SHT30;66893;44.316;0.092;2024-03-25T14:38:33;21.26;41.67
76785;SHT30;66893;44.316;0.092;2024-03-25T14:40:59;21.23;41.56
76785;SHT30;66893;44.316;0.092;2024-03-25T14:43:25;21.18;41.19
76785;SHT30;66893;44.316;0.092;2024-03-25T14:45:50;21.10;41.01
76785;SHT30;66893;44.316;0.092;2024-03-25T14:48:19;21.05;40.85
76785;SHT30;66893;44.316;0.092;2024-03-25T14:50:44;20.96;40.78
76785;SHT30;66893;44.316;0.092;2024-03-25T14:53:10;20.89;40.59
76785;SHT30;66893;44.316;0.092;2024-03-25T14:55:35;20.87;40.60
76785;SHT30;66893;44.316;0.092;2024-03-25T14:58:01;20.81;40.52
76785;SHT30;66893;44.316;0.092;2024-03-25T15:00:26;20.75;40.42
76785;SHT30;66893;44.316;0.092;2024-03-25T15:02:52;20.75;40.36
76785;SHT30;66893;44.316;0.092;2024-03-25T15:05:18;20.71;40.26
76785;SHT30;66893;44.316;0.092;2024-03-25T15:07:44;20.67;40.24
76785;SHT30;66893;44.316;0.092;2024-03-25T15:10:09;20.60;40.21
76785;SHT30;66893;44.316;0.092;2024-03-25T15:12:35;20.57;40.13
76785;SHT30;66893;44.316;0.092;2024-03-25T15:15:07;20.51;40.17
76785;SHT30;66893;44.316;0.092;2024-03-25T15:17:33;20.47;40.02
76785;SHT30;66893;44.316;0.092;2024-03-25T15:19:59;20.43;40.06
76785;SHT30;66893;44.316;0.092;2024-03-25T15:22:25;20.41;40.06
76785;SHT30;66893;44.316;0.092;2024-03-25T15:24:50;20.37;40.06
76785;SHT30;66893;44.316;0.092;2024-03-25T15:27:16;20.30;40.08
76785;SHT30;66893;44.316;0.092;2024-03-25T15:29:41;20.29;40.10
76785;SHT30;66893;44.316;0.092;2024-03-25T15:32:07;20.23;40.08
76785;SHT30;66893;44.316;0.092;2024-03-25T15:34:32;20.22;40.08
76785;SHT30;66893;44.316;0.092;2024-03-25T15:36:58;20.19;40.11
76785;SHT30;66893;44.316;0.092;2024-03-25T15:39:23;20.17;40.08
76785;SHT30;66893;44.316;0.092;2024-03-25T15:41:49;20.13;40.02
76785;SHT30;66893;44.316;0.092;2024-03-25T15:44:15;20.12;40.07
76785;SHT30;66893;44.316;0.092;2024-03-25T15:46:41;20.05;40.18
76785;SHT30;66893;44.316;0.092;2024-03-25T15:49:07;20.02;40.15
76785;SHT30;66893;44.316;0.092;2024-03-25T15:51:32;20.02;40.09
76785;SHT30;66893;44.316;0.092;2024-03-25T15:53:58;19.98;40.06
76785;SHT30;66893;44.316;0.092;2024-03-25T15:56:24;19.95;40.09
76785;SHT30;66893;44.316;0.092;2024-03-25T15:58:50;19.92;40.00
76785;SHT30;66893;44.316;0.092;2024-03-25T16:01:15;19.89;40.02
76785;SHT30;66893;44.316;0.092;2024-03-25T16:03:41;19.88;40.11
76785;SHT30;66893;44.316;0.092;2024-03-25T16:06:06;19.83;40.13
76785;SHT30;66893;44.316;0.092;2024-03-25T16:08:32;19.85;40.05
76785;SHT30;66893;44.316;0.092;2024-03-25T16:10:58;19.81;40.05
76785;SHT30;66893;44.316;0.092;2024-03-25T16:13:23;19.79;40.09
76785;SHT30;66893;44.316;0.092;2024-03-25T16:16:03;19.79;40.07
76785;SHT30;66893;44.316;0.092;2024-03-25T16:18:28;19.77;40.08
76785;SHT30;66893;44.316;0.092;2024-03-25T16:20:56;19.74;40.12
76785;SHT30;66893;44.316;0.092;2024-03-25T16:23:21;19.68;40.15
76785;SHT30;66893;44.316;0.092;2024-03-25T16:25:47;19.68;40.16
76785;SHT30;66893;44.316;0.092;2024-03-25T16:28:12;19.67;40.24
76785;SHT30;66893;44.316;0.092;2024-03-25T16:30:39;19.65;40.24
76785;SHT30;66893;44.316;0.092;2024-03-25T16:33:04;19.64;40.25
76785;SHT30;66893;44.316;0.092;2024-03-25T16:35:30;19.62;40.32
76785;SHT30;66893;44.316;0.092;2024-03-25T16:37:56;19.60;40.38
76785;SHT30;66893;44.316;0.092;2024-03-25T16:40:23;19.54;40.40
76785;SHT30;66893;44.316;0.092;2024-03-25T16:42:50;19.53;40.43
76785;SHT30;66893;44.316;0.092;2024-03-25T16:45:15;19.53;40.46
76785;SHT30;66893;44.316;0.092;2024-03-25T16:47:41;19.50;40.53
76785;SHT30;66893;44.316;0.092;2024-03-25T16:50:06;19.47;40.60
76785;SHT30;66893;44.316;0.092;2024-03-25T16:52:34;19.49;40.69
76785;SHT30;66893;44.316;0.092;2024-03-25T16:54:59;19.49;40.73
76785;SHT30;66893;44.316;0.092;2024-03-25T16:57:25;19.44;40.77
76785;SHT30;66893;44.316;0.092;2024-03-25T16:59:50;19.46;40.77
76785;SHT30;66893;44.316;0.092;2024-03-25T17:02:16;19.44;40.86
76785;SHT30;66893;44.316;0.092;2024-03-25T17:04:41;19.40;40.88
76785;SHT30;66893;44.316;0.092;2024-03-25T17:07:07;19.38;40.91
76785;SHT30;66893;44.316;0.092;2024-03-25T17:09:32;19.38;40.98
76785;SHT30;66893;44.316;0.092;2024-03-25T17:11:59;19.35;41.10
76785;SHT30;66893;44.316;0.092;2024-03-25T17:14:24;19.34;41.14
76785;SHT30;66893;44.316;0.092;2024-03-25T17:16:50;19.31;41.14
76785;SHT30;66893;44.316;0.092;2024-03-25T17:19:16;19.31;41.32
76785;SHT30;66893;44.316;0.092;2024-03-25T17:21:41;19.33;41.62
76785;SHT30;66893;44.316;0.092;2024-03-25T17:24:06;19.35;41.76
76785;SHT30;66893;44.316;0.092;2024-03-25T17:26:34;19.35;41.96
76785;SHT30;66893;44.316;0.092;2024-03-25T17:28:59;19.41;42.10
76785;SHT30;66893;44.316;0.092;2024-03-25T17:31:26;19.41;42.27
76785;SHT30;66893;44.316;0.092;2024-03-25T17:33:52;19.38;42.39
76785;SHT30;66893;44.316;0.092;2024-03-25T17:36:17;19.41;42.46
76785;SHT30;66893;44.316;0.092;2024-03-25T17:38:43;19.44;42.63
76785;SHT30;66893;44.316;0.092;2024-03-25T17:41:08;19.47;42.71
76785;SHT30;66893;44.316;0.092;2024-03-25T17:43:36;19.46;42.86
76785;SHT30;66893;44.316;0.092;2024-03-25T17:46:02;19.49;42.89
76785;SHT30;66893;44.316;0.092;2024-03-25T17:48:28;19.50;42.95
76785;SHT30;66893;44.316;0.092;2024-03-25T17:50:58;19.46;43.08
76785;SHT30;66893;44.316;0.092;2024-03-25T17:53:30;19.47;43.11
76785;SHT30;66893;44.316;0.092;2024-03-25T17:55:56;19.49;43.28
76785;SHT30;66893;44.316;0.092;2024-03-25T17:58:24;19.49;43.36
76785;SHT30;66893;44.316;0.092;2024-03-25T18:00:49;19.50;43.47
76785;SHT30;66893;44.316;0.092;2024-03-25T18:03:19;19.49;43.60
76785;SHT30;66893;44.316;0.092;2024-03-25T18:05:45;19.49;43.59
76785;SHT30;66893;44.316;0.092;2024-03-25T18:08:11;19.47;43.67
76785;SHT30;66893;44.316;0.092;2024-03-25T18:10:36;19.49;43.77
76785;SHT30;66893;44.316;0.092;2024-03-25T18:13:08;19.53;43.82
76785;SHT30;66893;44.316;0.092;2024-03-25T18:15:49;19.50;43.88
76785;SHT30;66893;44.316;0.092;2024-03-25T18:18:16;19.54;43.95
76785;SHT30;66893;44.316;0.092;2024-03-25T18:20:45;19.51;44.08
76785;SHT30;66893;44.316;0.092;2024-03-25T18:23:11;19.49;44.08
76785;SHT30;66893;44.316;0.092;2024-03-25T18:25:37;19.49;44.10
76785;SHT30;66893;44.316;0.092;2024-03-25T18:28:04;19.50;44.22
76785;SHT30;66893;44.316;0.092;2024-03-25T18:30:30;19.50;44.22
76785;SHT30;66893;44.316;0.092;2024-03-25T18:32:56;19.46;44.25
76785;SHT30;66893;44.316;0.092;2024-03-25T18:35:22;19.46;44.23
76785;SHT30;66893;44.316;0.092;2024-03-25T18:37:47;19.44;44.26
76785;SHT30;66893;44.316;0.092;2024-03-25T18:40:13;19.49;44.31
76785;SHT30;66893;44.316;0.092;2024-03-25T18:42:42;19.47;44.32
76785;SHT30;66893;44.316;0.092;2024-03-25T18:45:08;19.50;44.34
76785;SHT30;66893;44.316;0.092;2024-03-25T18:47:35;19.50;44.31
76785;SHT30;66893;44.316;0.092;2024-03-25T18:50:01;19.51;44.28
76785;SHT30;66893;44.316;0.092;2024-03-25T18:52:26;19.54;44.33
76785;SHT30;66893;44.316;0.092;2024-03-25T18:54:53;19.51;44.28
76785;SHT30;66893;44.316;0.092;2024-03-25T18:57:19;19.55;44.24
76785;SHT30;66893;44.316;0.092;2024-03-25T18:59:45;19.55;44.31
76785;SHT30;66893;44.316;0.092;2024-03-25T19:02:10;19.57;44.25
76785;SHT30;66893;44.316;0.092;2024-03-25T19:04:35;19.55;44.32
76785;SHT30;66893;44.316;0.092;2024-03-25T19:07:01;19.60;44.27
76785;SHT30;66893;44.316;0.092;2024-03-25T19:09:27;19.55;44.27
76785;SHT30;66893;44.316;0.092;2024-03-25T19:11:52;19.57;44.32
76785;SHT30;66893;44.316;0.092;2024-03-25T19:14:18;19.57;44.39
76785;SHT30;66893;44.316;0.092;2024-03-25T19:16:43;19.55;44.37
76785;SHT30;66893;44.316;0.092;2024-03-25T19:19:09;19.55;44.39
76785;SHT30;66893;44.316;0.092;2024-03-25T19:21:34;19.57;44.37
76785;SHT30;66893;44.316;0.092;2024-03-25T19:24:00;19.57;44.45
76785;SHT30;66893;44.316;0.092;2024-03-25T19:26:25;19.58;44.52
76785;SHT30;66893;44.316;0.092;2024-03-25T19:28:51;19.58;44.45
76785;SHT30;66893;44.316;0.092;2024-03-25T19:31:19;19.57;44.51
76785;SHT30;66893;44.316;0.092;2024-03-25T19:33:46;19.54;44.58
76785;SHT30;66893;44.316;0.092;2024-03-25T19:36:14;19.57;44.62
76785;SHT30;66893;44.316;0.092;2024-03-25T19:38:39;19.55;44.58
76785;SHT30;66893;44.316;0.092;2024-03-25T19:41:04;19.55;44.66
76785;SHT30;66893;44.316;0.092;2024-03-25T19:43:30;19.53;44.73
76785;SHT30;66893;44.316;0.092;2024-03-25T19:45:56;19.54;44.76
76785;SHT30;66893;44.316;0.092;2024-03-25T19:48:22;19.55;44.77
76785;SHT30;66893;44.316;0.092;2024-03-25T19:50:48;19.55;44.93
76785;SHT30;66893;44.316;0.092;2024-03-25T19:53:14;19.58;44.97
76785;SHT30;66893;44.316;0.092;2024-03-25T19:55:40;19.57;45.07
76785;SHT30;66893;44.316;0.092;2024-03-25T19:58:05;19.55;45.15
76785;SHT30;66893;44.316;0.092;2024-03-25T20:00:31;19.54;45.17
76785;SHT30;66893;44.316;0.092;2024-03-25T20:02:56;19.54;45.30
76785;SHT30;66893;44.316;0.092;2024-03-25T20:05:22;19.50;45.43
76785;SHT30;66893;44.316;0.092;2024-03-25T20:07:48;19.53;45.48
76785;SHT30;66893;44.316;0.092;2024-03-25T20:10:13;19.53;45.50
76785;SHT30;66893;44.316;0.092;2024-03-25T20:12:38;19.49;45.61
76785;SHT30;66893;44.316;0.092;2024-03-25T20:15:04;19.50;45.64
76785;SHT30;66893;44.316;0.092;2024-03-25T20:17:30;19.49;45.75
76785;SHT30;66893;44.316;0.092;2024-03-25T20:19:55;19.49;45.88
76785;SHT30;66893;44.316;0.092;2024-03-25T20:22:21;19.46;45.94
76785;SHT30;66893;44.316;0.092;2024-03-25T20:24:49;19.44;46.04
76785;SHT30;66893;44.316;0.092;2024-03-25T20:27:15;19.44;46.08
76785;SHT30;66893;44.316;0.092;2024-03-25T20:29:40;19.41;46.16
76785;SHT30;66893;44.316;0.092;2024-03-25T20:32:06;19.41;46.27
76785;SHT30;66893;44.316;0.092;2024-03-25T20:34:32;19.35;46.39
76785;SHT30;66893;44.316;0.092;2024-03-25T20:36:57;19.28;46.67
76785;SHT30;66893;44.316;0.092;2024-03-25T20:39:23;19.24;46.89
76785;SHT30;66893;44.316;0.092;2024-03-25T20:41:49;19.23;46.94
76785;SHT30;66893;44.316;0.092;2024-03-25T20:44:14;19.23;47.02
76785;SHT30;66893;44.316;0.092;2024-03-25T20:46:40;19.24;47.12
76785;SHT30;66893;44.316;0.092;2024-03-25T20:49:06;19.26;47.18
76785;SHT30;66893;44.316;0.092;2024-03-25T20:51:31;19.22;47.21
76785;SHT30;66893;44.316;0.092;2024-03-25T20:53:57;19.26;47.29
76785;SHT30;66893;44.316;0.092;2024-03-25T20:56:22;19.26;47.31
76785;SHT30;66893;44.316;0.092;2024-03-25T20:58:48;19.24;47.40
76785;SHT30;66893;44.316;0.092;2024-03-25T21:01:14;19.23;47.48
76785;SHT30;66893;44.316;0.092;2024-03-25T21:03:39;19.23;47.47
76785;SHT30;66893;44.316;0.092;2024-03-25T21:06:05;19.22;47.58
76785;SHT30;66893;44.316;0.092;2024-03-25T21:08:32;19.20;47.61
76785;SHT30;66893;44.316;0.092;2024-03-25T21:10:58;19.22;47.66
76785;SHT30;66893;44.316;0.092;2024-03-25T21:13:24;19.20;47.72
76785;SHT30;66893;44.316;0.092;2024-03-25T21:15:50;19.20;47.80
76785;SHT30;66893;44.316;0.092;2024-03-25T21:18:15;19.19;47.89
76785;SHT30;66893;44.316;0.092;2024-03-25T21:20:40;19.19;47.91
76785;SHT30;66893;44.316;0.092;2024-03-25T21:23:06;19.16;47.98
76785;SHT30;66893;44.316;0.092;2024-03-25T21:25:31;19.17;48.03
76785;SHT30;66893;44.316;0.092;2024-03-25T21:27:57;19.16;48.12
76785;SHT30;66893;44.316;0.092;2024-03-25T21:30:23;19.16;48.15
76785;SHT30;66893;44.316;0.092;2024-03-25T21:32:48;19.14;48.19
76785;SHT30;66893;44.316;0.092;2024-03-25T21:35:14;19.16;48.23
76785;SHT30;66893;44.316;0.092;2024-03-25T21:37:40;19.14;48.27
76785;SHT30;66893;44.316;0.092;2024-03-25T21:40:05;19.14;48.40
76785;SHT30;66893;44.316;0.092;2024-03-25T21:42:32;19.10;48.37
76785;SHT30;66893;44.316;0.092;2024-03-25T21:44:58;19.12;48.59
76785;SHT30;66893;44.316;0.092;2024-03-25T21:47:24;19.09;48.56
76785;SHT30;66893;44.316;0.092;2024-03-25T21:49:49;19.07;48.59
76785;SHT30;66893;44.316;0.092;2024-03-25T21:52:15;19.09;48.64
76785;SHT30;66893;44.316;0.092;2024-03-25T21:54:42;19.06;48.73
76785;SHT30;66893;44.316;0.092;2024-03-25T21:57:09;19.06;48.79
76785;SHT30;66893;44.316;0.092;2024-03-25T21:59:34;19.05;48.83
76785;SHT30;66893;44.316;0.092;2024-03-25T22:01:59;19.05;48.87
76785;SHT30;66893;44.316;0.092;2024-03-25T22:04:25;19.02;48.96
76785;SHT30;66893;44.316;0.092;2024-03-25T22:06:50;19.05;49.02
76785;SHT30;66893;44.316;0.092;2024-03-25T22:09:19;19.00;49.01
76785;SHT30;66893;44.316;0.092;2024-03-25T22:11:44;19.02;49.11
76785;SHT30;66893;44.316;0.092;2024-03-25T22:14:10;19.00;49.16
76785;SHT30;66893;44.316;0.092;2024-03-25T22:16:35;19.02;49.19
76785;SHT30;66893;44.316;0.092;2024-03-25T22:19:01;18.98;49.22
76785;SHT30;66893;44.316;0.092;2024-03-25T22:21:29;18.99;49.37
76785;SHT30;66893;44.316;0.092;2024-03-25T22:23:55;18.98;49.39
76785;SHT30;66893;44.316;0.092;2024-03-25T22:26:20;18.98;49.43
76785;SHT30;66893;44.316;0.092;2024-03-25T22:28:48;18.96;49.44
76785;SHT30;66893;44.316;0.092;2024-03-25T22:31:14;18.94;49.50
76785;SHT30;66893;44.316;0.092;2024-03-25T22:33:39;18.95;49.50
76785;SHT30;66893;44.316;0.092;2024-03-25T22:36:05;18.94;49.61
76785;SHT30;66893;44.316;0.092;2024-03-25T22:38:30;18.94;49.63
76785;SHT30;66893;44.316;0.092;2024-03-25T22:40:56;18.91;49.68
76785;SHT30;66893;44.316;0.092;2024-03-25T22:43:28;18.92;49.74
76785;SHT30;66893;44.316;0.092;2024-03-25T22:45:58;18.89;49.74
76785;SHT30;66893;44.316;0.092;2024-03-25T22:48:24;18.89;49.81
76785;SHT30;66893;44.316;0.092;2024-03-25T22:50:59;18.91;49.86
76785;SHT30;66893;44.316;0.092;2024-03-25T22:53:25;18.89;49.96
76785;SHT30;66893;44.316;0.092;2024-03-25T22:56:10;18.86;49.91
76785;SHT30;66893;44.316;0.092;2024-03-25T22:58:36;18.85;50.02
76785;SHT30;66893;44.316;0.092;2024-03-25T23:03:30;18.84;50.21
76785;SHT30;66893;44.316;0.092;2024-03-25T23:05:57;18.82;50.19
76785;SHT30;66893;44.316;0.092;2024-03-25T23:08:23;18.84;50.30
76785;SHT30;66893;44.316;0.092;2024-03-25T23:10:49;18.82;50.32
76785;SHT30;66893;44.316;0.092;2024-03-25T23:13:15;18.81;50.39
76785;SHT30;66893;44.316;0.092;2024-03-25T23:15:40;18.81;50.42
76785;SHT30;66893;44.316;0.092;2024-03-25T23:18:06;18.81;50.48
76785;SHT30;66893;44.316;0.092;2024-03-25T23:20:41;18.79;50.46
76785;SHT30;66893;44.316;0.092;2024-03-25T23:23:07;18.79;50.49
76785;SHT30;66893;44.316;0.092;2024-03-25T23:25:33;18.76;50.59
76785;SHT30;66893;44.316;0.092;2024-03-25T23:27:59;18.75;50.52
76785;SHT30;66893;44.316;0.092;2024-03-25T23:30:24;18.78;50.63
76785;SHT30;66893;44.316;0.092;2024-03-25T23:32:50;18.78;50.68
76785;SHT30;66893;44.316;0.092;2024-03-25T23:35:15;18.73;50.71
76785;SHT30;66893;44.316;0.092;2024-03-25T23:37:41;18.72;50.74
76785;SHT30;66893;44.316;0.092;2024-03-25T23:40:07;18.75;50.85
76785;SHT30;66893;44.316;0.092;2024-03-25T23:42:34;18.72;50.83
76785;SHT30;66893;44.316;0.092;2024-03-25T23:44:59;18.71;50.92
76785;SHT30;66893;44.316;0.092;2024-03-25T23:47:25;18.69;50.96
76785;SHT30;66893;44.316;0.092;2024-03-25T23:49:50;18.68;51.00
76785;SHT30;66893;44.316;0.092;2024-03-25T23:52:16;18.68;51.06
76785;SHT30;66893;44.316;0.092;2024-03-25T23:54:41;18.67;51.02
76785;SHT30;66893;44.316;0.092;2024-03-25T23:57:08;18.67;51.07
76785;SHT30;66893;44.316;0.092;2024-03-25T23:59:34;18.67;51.14
